sensor_id;sensor_type;location;lat;lon;timestamp;noise_LAeq;noise_LA_min;noise_LA_max;noise_LA01;noise_LA95
67300;Laerm;57658;51.436;5.980;2022-07-05T00:00:07;43.74;40.52;53.57;;
67300;Laerm;57658;51.436;5.980;2022-07-05T00:00:18;53.46;42.65;72.72;;
67300;Laerm;57658;51.436;5.980;2022-07-05T00:00:28;46.09;40.51;57.95;;
67300;Laerm;57658;51.436;5.980;2022-07-05T00:00:38;50.28;41.36;61.85;;
67300;Laerm;57658;51.436;5.980;2022-07-05T00:00:49;45.72;40.50;58.89;;
67300;Laerm;57658;51.436;5.980;2022-07-05T00:00:59;49.69;40.62;65.84;;
67300;Laerm;57658;51.436;5.980;2022-07-05T00:01:10;48.89;41.22;61.83;;
67300;Laerm;57658;51.436;5.980;2022-07-05T00:01:20;44.11;40.20;48.31;;
67300;Laerm;57658;51.436;5.980;2022-07-05T00:01:30;48.17;42.65;55.78;;
67300;Laerm;57658;51.436;5.980;2022-07-05T00:01:41;47.41;41.65;53.98;;
67300;Laerm;57658;51.436;5.980;2022-07-05T00:01:51;44.24;40.24;60.59;;
67300;Laerm;57658;51.436;5.980;2022-07-05T00:02:01;45.69;41.32;58.42;;
67300;Laerm;57658;51.436;5.980;2022-07-05T00:02:11;42.61;39.55;48.14;;
67300;Laerm;57658;51.436;5.980;2022-07-05T00:02:22;43.74;40.12;54.76;;
67300;Laerm;57658;51.436;5.980;2022-07-05T00:02:33;43.98;41.22;46.30;;
67300;Laerm;57658;51.436;5.980;2022-07-05T00:02:43;44.82;40.69;48.10;;
67300;Laerm;57658;51.436;5.980;2022-07-05T00:02:53;56.31;46.17;60.93;;
67300;Laerm;57658;51.436;5.980;2022-07-05T00:03:04;51.96;45.00;57.66;;
67300;Laerm;57658;51.436;5.980;2022-07-05T00:03:14;45.85;42.09;48.77;;
67300;Laerm;57658;51.436;5.980;2022-07-05T00:03:24;43.32;40.42;46.03;;
67300;Laerm;57658;51.436;5.980;2022-07-05T00:03:35;41.67;38.76;44.51;;
67300;Laerm;57658;51.436;5.980;2022-07-05T00:03:45;43.02;40.04;45.74;;
67300;Laerm;57658;51.436;5.980;2022-07-05T00:03:55;42.72;39.69;46.17;;
67300;Laerm;57658;51.436;5.980;2022-07-05T00:04:05;41.33;38.52;44.15;;
67300;Laerm;57658;51.436;5.980;2022-07-05T00:04:16;40.21;37.16;43.30;;
67300;Laerm;57658;51.436;5.980;2022-07-05T00:04:26;41.06;38.82;43.32;;
67300;Laerm;57658;51.436;5.980;2022-07-05T00:04:36;42.66;39.23;45.33;;
67300;Laerm;57658;51.436;5.980;2022-07-05T00:04:46;41.54;39.01;44.00;;
67300;Laerm;57658;51.436;5.980;2022-07-05T00:04:57;40.83;38.32;43.88;;
67300;Laerm;57658;51.436;5.980;2022-07-05T00:05:07;41.17;38.79;45.50;;
67300;Laerm;57658;51.436;5.980;2022-07-05T00:05:18;40.60;38.46;42.74;;
67300;Laerm;57658;51.436;5.980;2022-07-05T00:05:28;40.23;37.48;44.05;;
67300;Laerm;57658;51.436;5.980;2022-07-05T00:05:39;39.63;37.14;42.40;;
67300;Laerm;57658;51.436;5.980;2022-07-05T00:05:49;40.29;37.62;43.05;;
67300;Laerm;57658;51.436;5.980;2022-07-05T00:05:59;39.67;37.25;43.09;;
67300;Laerm;57658;51.436;5.980;2022-07-05T00:06:10;40.39;37.93;43.01;;
67300;Laerm;57658;51.436;5.980;2022-07-05T00:06:20;41.93;37.36;48.99;;
67300;Laerm;57658;51.436;5.980;2022-07-05T00:06:30;41.49;38.28;44.56;;
67300;Laerm;57658;51.436;5.980;2022-07-05T00:06:41;42.72;39.46;46.07;;
67300;Laerm;57658;51.436;5.980;2022-07-05T00:07:11;40.59;36.79;45.81;;
67300;Laerm;57658;51.436;5.980;2022-07-05T00:07:30;39.72;36.92;42.56;;
67300;Laerm;57658;51.436;5.980;2022-07-05T00:07:41;69.06;38.13;76.29;;
67300;Laerm;57658;51.436;5.980;2022-07-05T00:07:51;69.05;56.15;76.26;;
67300;Laerm;57658;51.436;5.980;2022-07-05T00:08:01;64.63;55.27;72.65;;
67300;Laerm;57658;51.436;5.980;2022-07-05T00:08:12;64.41;54.85;72.89;;
67300;Laerm;57658;51.436;5.980;2022-07-05T00:08:22;65.25;55.55;74.12;;
67300;Laerm;57658;51.436;5.980;2022-07-05T00:08:32;80.84;60.23;88.36;;
67300;Laerm;57658;51.436;5.980;2022-07-05T00:08:43;82.42;77.90;87.10;;
67300;Laerm;57658;51.436;5.980;2022-07-05T00:08:53;78.96;57.63;88.78;;
67300;Laerm;57658;51.436;5.980;2022-07-05T00:09:03;58.54;45.03;70.11;;
67300;Laerm;57658;51.436;5.980;2022-07-05T00:09:14;44.93;40.86;51.47;;
67300;Laerm;57658;51.436;5.980;2022-07-05T00:09:24;42.70;39.48;50.08;;
67300;Laerm;57658;51.436;5.980;2022-07-05T00:09:34;42.51;38.95;51.48;;
67300;Laerm;57658;51.436;5.980;2022-07-05T00:09:45;46.10;38.08;63.18;;
67300;Laerm;57658;51.436;5.980;2022-07-05T00:09:56;50.67;38.55;66.21;;
67300;Laerm;57658;51.436;5.980;2022-07-05T00:10:07;56.59;37.48;73.51;;
67300;Laerm;57658;51.436;5.980;2022-07-05T00:10:17;59.67;38.85;75.10;;
67300;Laerm;57658;51.436;5.980;2022-07-05T00:10:28;41.17;38.17;45.28;;
67300;Laerm;57658;51.436;5.980;2022-07-05T00:10:38;40.48;38.08;42.94;;
67300;Laerm;57658;51.436;5.980;2022-07-05T00:10:48;39.51;37.01;43.64;;
67300;Laerm;57658;51.436;5.980;2022-07-05T00:10:59;39.53;36.77;41.87;;
67300;Laerm;57658;51.436;5.980;2022-07-05T00:11:09;39.86;37.25;42.44;;
67300;Laerm;57658;51.436;5.980;2022-07-05T00:11:19;39.96;35.82;43.74;;
67300;Laerm;57658;51.436;5.980;2022-07-05T00:11:30;39.39;36.16;41.91;;
67300;Laerm;57658;51.436;5.980;2022-07-05T00:11:40;40.07;37.16;46.39;;
67300;Laerm;57658;51.436;5.980;2022-07-05T00:11:51;40.43;38.03;44.69;;
67300;Laerm;57658;51.436;5.980;2022-07-05T00:12:01;39.80;37.73;42.35;;
67300;Laerm;57658;51.436;5.980;2022-07-05T00:12:12;38.62;35.94;40.99;;
67300;Laerm;57658;51.436;5.980;2022-07-05T00:12:28;39.80;37.39;43.23;;
67300;Laerm;57658;51.436;5.980;2022-07-05T00:12:40;39.31;36.77;41.52;;
67300;Laerm;57658;51.436;5.980;2022-07-05T00:12:51;39.57;36.54;51.69;;
67300;Laerm;57658;51.436;5.980;2022-07-05T00:13:02;39.55;36.67;41.86;;
67300;Laerm;57658;51.436;5.980;2022-07-05T00:13:13;40.21;37.58;43.65;;
67300;Laerm;57658;51.436;5.980;2022-07-05T00:13:23;39.32;36.90;43.60;;
67300;Laerm;57658;51.436;5.980;2022-07-05T00:13:34;40.69;37.76;46.03;;
67300;Laerm;57658;51.436;5.980;2022-07-05T00:13:44;40.71;37.66;46.72;;
67300;Laerm;57658;51.436;5.980;2022-07-05T00:13:54;41.42;38.35;51.14;;
67300;Laerm;57658;51.436;5.980;2022-07-05T00:14:05;38.02;34.34;42.57;;
67300;Laerm;57658;51.436;5.980;2022-07-05T00:14:15;38.46;35.48;45.00;;
67300;Laerm;57658;51.436;5.980;2022-07-05T00:14:25;39.79;36.56;44.31;;
67300;Laerm;57658;51.436;5.980;2022-07-05T00:14:35;41.43;38.23;44.69;;
67300;Laerm;57658;51.436;5.980;2022-07-05T00:14:46;43.09;38.44;46.23;;
67300;Laerm;57658;51.436;5.980;2022-07-05T00:14:58;40.80;36.94;44.93;;
67300;Laerm;57658;51.436;5.980;2022-07-05T00:15:08;41.29;38.82;44.26;;
67300;Laerm;57658;51.436;5.980;2022-07-05T00:15:18;41.24;38.56;45.75;;
67300;Laerm;57658;51.436;5.980;2022-07-05T00:15:29;42.05;38.13;51.13;;
67300;Laerm;57658;51.436;5.980;2022-07-05T00:15:39;43.38;37.53;55.84;;
67300;Laerm;57658;51.436;5.980;2022-07-05T00:15:49;44.34;37.34;62.45;;
67300;Laerm;57658;51.436;5.980;2022-07-05T00:16:02;47.23;37.79;59.65;;
67300;Laerm;57658;51.436;5.980;2022-07-05T00:16:12;50.01;38.66;61.23;;
67300;Laerm;57658;51.436;5.980;2022-07-05T00:16:23;41.59;37.78;51.83;;
67300;Laerm;57658;51.436;5.980;2022-07-05T00:16:33;42.08;39.23;45.51;;
67300;Laerm;57658;51.436;5.980;2022-07-05T00:16:43;58.13;44.20;66.14;;
67300;Laerm;57658;51.436;5.980;2022-07-05T00:16:53;56.61;43.08;64.26;;
67300;Laerm;57658;51.436;5.980;2022-07-05T00:17:04;43.81;40.10;48.28;;
67300;Laerm;57658;51.436;5.980;2022-07-05T00:17:14;41.48;38.80;43.62;;
67300;Laerm;57658;51.436;5.980;2022-07-05T00:17:25;41.25;38.29;44.04;;
67300;Laerm;57658;51.436;5.980;2022-07-05T00:17:35;42.38;39.17;45.21;;
67300;Laerm;57658;51.436;5.980;2022-07-05T00:17:45;42.21;39.67;45.65;;
67300;Laerm;57658;51.436;5.980;2022-07-05T00:17:56;44.39;41.05;46.74;;
67300;Laerm;57658;51.436;5.980;2022-07-05T00:18:06;42.89;39.46;49.41;;
67300;Laerm;57658;51.436;5.980;2022-07-05T00:18:17;44.14;40.74;46.52;;
67300;Laerm;57658;51.436;5.980;2022-07-05T00:18:27;43.65;39.94;47.50;;
67300;Laerm;57658;51.436;5.980;2022-07-05T00:18:37;43.17;40.18;49.68;;
67300;Laerm;57658;51.436;5.980;2022-07-05T00:18:47;44.61;40.71;48.03;;
67300;Laerm;57658;51.436;5.980;2022-07-05T00:18:58;43.21;39.96;47.23;;
67300;Laerm;57658;51.436;5.980;2022-07-05T00:19:08;41.53;38.23;44.71;;
67300;Laerm;57658;51.436;5.980;2022-07-05T00:19:18;44.52;38.14;49.80;;
67300;Laerm;57658;51.436;5.980;2022-07-05T00:19:29;43.64;38.89;48.95;;
67300;Laerm;57658;51.436;5.980;2022-07-05T00:19:39;42.11;38.85;44.67;;
67300;Laerm;57658;51.436;5.980;2022-07-05T00:19:49;43.48;40.77;46.07;;
67300;Laerm;57658;51.436;5.980;2022-07-05T00:20:00;44.04;40.44;55.69;;
67300;Laerm;57658;51.436;5.980;2022-07-05T00:20:10;46.57;41.29;63.93;;
67300;Laerm;57658;51.436;5.980;2022-07-05T00:20:21;43.92;41.27;46.72;;
67300;Laerm;57658;51.436;5.980;2022-07-05T00:20:31;42.93;39.17;46.79;;
67300;Laerm;57658;51.436;5.980;2022-07-05T00:20:41;42.47;39.14;46.02;;
67300;Laerm;57658;51.436;5.980;2022-07-05T00:20:52;40.98;38.93;43.51;;
67300;Laerm;57658;51.436;5.980;2022-07-05T00:21:02;40.72;38.68;43.05;;
67300;Laerm;57658;51.436;5.980;2022-07-05T00:21:12;40.43;38.19;42.71;;
67300;Laerm;57658;51.436;5.980;2022-07-05T00:21:23;41.43;38.44;44.06;;
67300;Laerm;57658;51.436;5.980;2022-07-05T00:21:33;42.27;39.69;44.77;;
67300;Laerm;57658;51.436;5.980;2022-07-05T00:21:43;44.21;40.59;47.17;;
67300;Laerm;57658;51.436;5.980;2022-07-05T00:21:54;42.97;39.48;46.12;;
67300;Laerm;57658;51.436;5.980;2022-07-05T00:22:04;42.11;39.39;44.73;;
67300;Laerm;57658;51.436;5.980;2022-07-05T00:22:14;41.24;39.08;45.09;;
67300;Laerm;57658;51.436;5.980;2022-07-05T00:22:25;41.42;38.47;44.32;;
67300;Laerm;57658;51.436;5.980;2022-07-05T00:22:35;63.51;39.83;74.56;;
67300;Laerm;57658;51.436;5.980;2022-07-05T00:22:45;70.41;64.38;77.09;;
67300;Laerm;57658;51.436;5.980;2022-07-05T00:22:55;65.05;56.04;73.44;;
67300;Laerm;57658;51.436;5.980;2022-07-05T00:23:06;64.22;56.46;72.57;;
67300;Laerm;57658;51.436;5.980;2022-07-05T00:23:16;64.19;56.32;72.90;;
67300;Laerm;57658;51.436;5.980;2022-07-05T00:23:26;75.41;56.56;83.26;;
67300;Laerm;57658;51.436;5.980;2022-07-05T00:23:37;82.00;77.88;87.52;;
67300;Laerm;57658;51.436;5.980;2022-07-05T00:23:47;81.09;60.36;87.62;;
67300;Laerm;57658;51.436;5.980;2022-07-05T00:23:57;61.14;45.49;72.24;;
67300;Laerm;57658;51.436;5.980;2022-07-05T00:24:07;44.31;40.74;46.82;;
67300;Laerm;57658;51.436;5.980;2022-07-05T00:24:18;44.24;40.59;47.77;;
67300;Laerm;57658;51.436;5.980;2022-07-05T00:24:28;44.72;41.75;47.43;;
67300;Laerm;57658;51.436;5.980;2022-07-05T00:24:38;43.37;40.61;45.78;;
67300;Laerm;57658;51.436;5.980;2022-07-05T00:24:49;42.01;39.04;45.13;;
67300;Laerm;57658;51.436;5.980;2022-07-05T00:25:00;41.37;38.44;44.79;;
67300;Laerm;57658;51.436;5.980;2022-07-05T00:25:10;41.38;38.43;44.52;;
67300;Laerm;57658;51.436;5.980;2022-07-05T00:25:21;41.21;38.59;43.09;;
67300;Laerm;57658;51.436;5.980;2022-07-05T00:25:31;41.75;39.22;45.57;;
67300;Laerm;57658;51.436;5.980;2022-07-05T00:25:42;42.21;39.02;44.51;;
67300;Laerm;57658;51.436;5.980;2022-07-05T00:25:52;42.56;40.05;45.61;;
67300;Laerm;57658;51.436;5.980;2022-07-05T00:26:02;43.00;40.03;46.20;;
67300;Laerm;57658;51.436;5.980;2022-07-05T00:26:12;43.91;40.67;46.63;;
67300;Laerm;57658;51.436;5.980;2022-07-05T00:26:23;43.00;39.92;45.03;;
67300;Laerm;57658;51.436;5.980;2022-07-05T00:26:33;42.21;39.56;45.66;;
67300;Laerm;57658;51.436;5.980;2022-07-05T00:26:43;41.74;38.72;44.11;;
67300;Laerm;57658;51.436;5.980;2022-07-05T00:26:54;40.88;38.50;43.05;;
67300;Laerm;57658;51.436;5.980;2022-07-05T00:27:04;48.74;38.47;61.89;;
67300;Laerm;57658;51.436;5.980;2022-07-05T00:27:14;43.03;38.57;52.86;;
67300;Laerm;57658;51.436;5.980;2022-07-05T00:27:24;40.96;38.07;44.40;;
67300;Laerm;57658;51.436;5.980;2022-07-05T00:27:35;42.35;40.43;44.05;;
67300;Laerm;57658;51.436;5.980;2022-07-05T00:27:45;43.12;39.89;46.31;;
67300;Laerm;57658;51.436;5.980;2022-07-05T00:27:56;43.88;41.38;46.86;;
67300;Laerm;57658;51.436;5.980;2022-07-05T00:28:08;43.07;39.85;46.53;;
67300;Laerm;57658;51.436;5.980;2022-07-05T00:28:18;42.18;39.22;44.74;;
67300;Laerm;57658;51.436;5.980;2022-07-05T00:28:28;41.80;39.76;43.95;;
67300;Laerm;57658;51.436;5.980;2022-07-05T00:28:39;41.47;39.36;43.98;;
67300;Laerm;57658;51.436;5.980;2022-07-05T00:28:49;41.36;39.15;43.12;;
67300;Laerm;57658;51.436;5.980;2022-07-05T00:28:59;41.39;39.22;43.91;;
67300;Laerm;57658;51.436;5.980;2022-07-05T00:29:09;41.88;38.63;44.55;;
67300;Laerm;57658;51.436;5.980;2022-07-05T00:29:20;42.60;40.43;47.90;;
67300;Laerm;57658;51.436;5.980;2022-07-05T00:29:30;42.41;39.64;44.63;;
67300;Laerm;57658;51.436;5.980;2022-07-05T00:29:40;41.82;38.98;44.20;;
67300;Laerm;57658;51.436;5.980;2022-07-05T00:29:51;46.54;40.58;51.59;;
67300;Laerm;57658;51.436;5.980;2022-07-05T00:30:02;56.15;47.61;61.88;;
67300;Laerm;57658;51.436;5.980;2022-07-05T00:30:13;43.61;40.56;48.52;;
67300;Laerm;57658;51.436;5.980;2022-07-05T00:30:23;42.53;40.42;44.73;;
67300;Laerm;57658;51.436;5.980;2022-07-05T00:30:33;42.69;40.51;44.87;;
67300;Laerm;57658;51.436;5.980;2022-07-05T00:30:44;41.77;39.40;44.90;;
67300;Laerm;57658;51.436;5.980;2022-07-05T00:30:54;41.40;37.71;44.32;;
67300;Laerm;57658;51.436;5.980;2022-07-05T00:31:04;41.91;38.39;45.02;;
67300;Laerm;57658;51.436;5.980;2022-07-05T00:31:15;41.54;38.68;45.08;;
67300;Laerm;57658;51.436;5.980;2022-07-05T00:31:25;41.11;37.42;44.08;;
67300;Laerm;57658;51.436;5.980;2022-07-05T00:31:35;41.77;38.73;45.20;;
67300;Laerm;57658;51.436;5.980;2022-07-05T00:31:46;41.16;38.15;43.36;;
67300;Laerm;57658;51.436;5.980;2022-07-05T00:31:56;41.69;39.52;44.05;;
67300;Laerm;57658;51.436;5.980;2022-07-05T00:32:06;43.78;40.35;55.17;;
67300;Laerm;57658;51.436;5.980;2022-07-05T00:32:16;52.20;41.01;72.50;;
67300;Laerm;57658;51.436;5.980;2022-07-05T00:32:27;44.30;40.92;55.92;;
67300;Laerm;57658;51.436;5.980;2022-07-05T00:32:37;42.97;40.65;48.62;;
67300;Laerm;57658;51.436;5.980;2022-07-05T00:32:47;43.07;41.07;45.18;;
67300;Laerm;57658;51.436;5.980;2022-07-05T00:32:58;43.66;41.12;45.60;;
67300;Laerm;57658;51.436;5.980;2022-07-05T00:33:08;45.32;41.49;47.68;;
67300;Laerm;57658;51.436;5.980;2022-07-05T00:33:18;47.02;44.36;49.23;;
67300;Laerm;57658;51.436;5.980;2022-07-05T00:33:28;46.74;44.31;49.35;;
67300;Laerm;57658;51.436;5.980;2022-07-05T00:33:39;45.59;43.35;48.38;;
67300;Laerm;57658;51.436;5.980;2022-07-05T00:33:49;45.02;42.48;47.31;;
67300;Laerm;57658;51.436;5.980;2022-07-05T00:33:59;45.12;42.38;46.92;;
67300;Laerm;57658;51.436;5.980;2022-07-05T00:34:09;44.43;42.35;46.35;;
67300;Laerm;57658;51.436;5.980;2022-07-05T00:34:20;44.92;42.44;47.11;;
67300;Laerm;57658;51.436;5.980;2022-07-05T00:34:30;45.34;43.02;48.01;;
67300;Laerm;57658;51.436;5.980;2022-07-05T00:34:40;46.42;43.07;49.35;;
67300;Laerm;57658;51.436;5.980;2022-07-05T00:34:51;45.30;42.67;48.18;;
67300;Laerm;57658;51.436;5.980;2022-07-05T00:35:01;46.01;43.31;49.19;;
67300;Laerm;57658;51.436;5.980;2022-07-05T00:35:12;47.85;44.86;50.18;;
67300;Laerm;57658;51.436;5.980;2022-07-05T00:35:22;45.85;42.58;49.89;;
67300;Laerm;57658;51.436;5.980;2022-07-05T00:35:33;44.17;41.49;47.46;;
67300;Laerm;57658;51.436;5.980;2022-07-05T00:35:43;47.05;43.12;50.27;;
67300;Laerm;57658;51.436;5.980;2022-07-05T00:35:53;48.57;44.50;52.04;;
67300;Laerm;57658;51.436;5.980;2022-07-05T00:36:03;47.63;43.47;51.68;;
67300;Laerm;57658;51.436;5.980;2022-07-05T00:36:14;46.86;42.90;50.20;;
67300;Laerm;57658;51.436;5.980;2022-07-05T00:36:24;47.11;43.69;53.66;;
67300;Laerm;57658;51.436;5.980;2022-07-05T00:36:34;46.18;42.83;50.49;;
67300;Laerm;57658;51.436;5.980;2022-07-05T00:36:45;46.93;43.89;49.73;;
67300;Laerm;57658;51.436;5.980;2022-07-05T00:36:55;47.61;43.84;52.41;;
67300;Laerm;57658;51.436;5.980;2022-07-05T00:37:05;47.43;43.84;50.53;;
67300;Laerm;57658;51.436;5.980;2022-07-05T00:37:16;47.87;44.29;54.56;;
67300;Laerm;57658;51.436;5.980;2022-07-05T00:37:26;50.13;44.98;63.10;;
67300;Laerm;57658;51.436;5.980;2022-07-05T00:37:36;45.22;42.13;56.20;;
67300;Laerm;57658;51.436;5.980;2022-07-05T00:37:46;47.06;42.95;50.29;;
67300;Laerm;57658;51.436;5.980;2022-07-05T00:37:57;69.26;45.42;75.59;;
67300;Laerm;57658;51.436;5.980;2022-07-05T00:38:07;68.76;56.90;75.60;;
67300;Laerm;57658;51.436;5.980;2022-07-05T00:38:17;64.56;56.25;73.64;;
67300;Laerm;57658;51.436;5.980;2022-07-05T00:38:28;65.02;56.03;73.88;;
67300;Laerm;57658;51.436;5.980;2022-07-05T00:38:38;64.49;57.05;74.56;;
67300;Laerm;57658;51.436;5.980;2022-07-05T00:38:48;79.98;60.67;85.89;;
67300;Laerm;57658;51.436;5.980;2022-07-05T00:38:59;81.66;78.11;86.84;;
67300;Laerm;57658;51.436;5.980;2022-07-05T00:39:09;75.68;57.95;84.39;;
67300;Laerm;57658;51.436;5.980;2022-07-05T00:39:20;53.84;47.44;71.70;;
67300;Laerm;57658;51.436;5.980;2022-07-05T00:39:30;51.11;46.76;54.37;;
67300;Laerm;57658;51.436;5.980;2022-07-05T00:39:40;48.16;44.07;51.86;;
67300;Laerm;57658;51.436;5.980;2022-07-05T00:39:51;48.95;45.88;52.28;;
67300;Laerm;57658;51.436;5.980;2022-07-05T00:40:01;50.08;45.93;53.51;;
67300;Laerm;57658;51.436;5.980;2022-07-05T00:40:11;49.00;46.38;51.79;;
67300;Laerm;57658;51.436;5.980;2022-07-05T00:40:22;49.61;47.35;52.54;;
67300;Laerm;57658;51.436;5.980;2022-07-05T00:40:32;49.52;46.96;52.00;;
67300;Laerm;57658;51.436;5.980;2022-07-05T00:40:42;47.12;44.29;50.00;;
67300;Laerm;57658;51.436;5.980;2022-07-05T00:40:53;47.60;45.16;50.18;;
67300;Laerm;57658;51.436;5.980;2022-07-05T00:41:03;46.88;44.25;49.32;;
67300;Laerm;57658;51.436;5.980;2022-07-05T00:41:14;47.97;45.97;50.36;;
67300;Laerm;57658;51.436;5.980;2022-07-05T00:41:24;48.40;45.92;50.36;;
67300;Laerm;57658;51.436;5.980;2022-07-05T00:41:35;49.39;46.11;52.64;;
67300;Laerm;57658;51.436;5.980;2022-07-05T00:41:45;48.63;45.92;52.18;;
67300;Laerm;57658;51.436;5.980;2022-07-05T00:41:55;49.65;46.19;52.65;;
67300;Laerm;57658;51.436;5.980;2022-07-05T00:42:06;47.55;44.56;50.41;;
67300;Laerm;57658;51.436;5.980;2022-07-05T00:42:16;49.40;46.83;51.73;;
67300;Laerm;57658;51.436;5.980;2022-07-05T00:42:26;47.93;44.03;51.49;;
67300;Laerm;57658;51.436;5.980;2022-07-05T00:42:36;46.53;43.75;49.26;;
67300;Laerm;57658;51.436;5.980;2022-07-05T00:42:47;46.07;43.85;48.54;;
67300;Laerm;57658;51.436;5.980;2022-07-05T00:42:57;45.46;43.07;47.96;;
67300;Laerm;57658;51.436;5.980;2022-07-05T00:43:07;44.17;40.66;48.28;;
67300;Laerm;57658;51.436;5.980;2022-07-05T00:43:18;45.46;41.61;55.13;;
67300;Laerm;57658;51.436;5.980;2022-07-05T00:43:29;44.93;41.34;56.64;;
67300;Laerm;57658;51.436;5.980;2022-07-05T00:43:56;49.67;41.91;66.47;;
67300;Laerm;57658;51.436;5.980;2022-07-05T00:44:08;46.39;42.53;54.09;;
67300;Laerm;57658;51.436;5.980;2022-07-05T00:44:27;46.82;44.14;49.51;;
67300;Laerm;57658;51.436;5.980;2022-07-05T00:44:38;45.89;42.74;50.07;;
67300;Laerm;57658;51.436;5.980;2022-07-05T00:44:51;51.47;44.10;67.57;;
67300;Laerm;57658;51.436;5.980;2022-07-05T00:45:04;45.31;42.43;53.10;;
67300;Laerm;57658;51.436;5.980;2022-07-05T00:45:16;43.20;40.10;46.46;;
67300;Laerm;57658;51.436;5.980;2022-07-05T00:45:26;43.70;41.31;46.04;;
67300;Laerm;57658;51.436;5.980;2022-07-05T00:45:36;43.97;41.58;46.13;;
67300;Laerm;57658;51.436;5.980;2022-07-05T00:45:47;44.51;41.98;49.41;;
67300;Laerm;57658;51.436;5.980;2022-07-05T00:45:57;46.12;42.85;57.24;;
67300;Laerm;57658;51.436;5.980;2022-07-05T00:46:07;51.17;43.92;67.78;;
67300;Laerm;57658;51.436;5.980;2022-07-05T00:46:17;48.35;44.37;51.40;;
67300;Laerm;57658;51.436;5.980;2022-07-05T00:46:28;46.80;43.87;49.32;;
67300;Laerm;57658;51.436;5.980;2022-07-05T00:46:38;48.34;45.56;51.08;;
67300;Laerm;57658;51.436;5.980;2022-07-05T00:46:48;46.45;43.39;49.37;;
67300;Laerm;57658;51.436;5.980;2022-07-05T00:46:59;47.96;45.28;50.69;;
67300;Laerm;57658;51.436;5.980;2022-07-05T00:47:10;55.61;42.31;72.80;;
67300;Laerm;57658;51.436;5.980;2022-07-05T00:47:20;70.37;62.80;75.37;;
67300;Laerm;57658;51.436;5.980;2022-07-05T00:47:31;66.87;56.08;75.16;;
67300;Laerm;57658;51.436;5.980;2022-07-05T00:47:41;64.04;55.59;73.21;;
67300;Laerm;57658;51.436;5.980;2022-07-05T00:47:51;64.99;55.91;74.84;;
67300;Laerm;57658;51.436;5.980;2022-07-05T00:48:01;80.42;58.65;87.41;;
67300;Laerm;57658;51.436;5.980;2022-07-05T00:48:12;82.41;79.45;87.32;;
67300;Laerm;57658;51.436;5.980;2022-07-05T00:48:22;80.10;59.38;85.32;;
67300;Laerm;57658;51.436;5.980;2022-07-05T00:48:32;61.18;52.12;72.45;;
67300;Laerm;57658;51.436;5.980;2022-07-05T00:48:43;58.40;46.94;69.00;;
67300;Laerm;57658;51.436;5.980;2022-07-05T00:48:53;48.62;43.85;61.44;;
67300;Laerm;57658;51.436;5.980;2022-07-05T00:49:04;46.51;43.23;50.47;;
67300;Laerm;57658;51.436;5.980;2022-07-05T00:49:14;49.28;45.56;51.55;;
67300;Laerm;57658;51.436;5.980;2022-07-05T00:49:24;46.64;43.83;51.65;;
67300;Laerm;57658;51.436;5.980;2022-07-05T00:49:35;44.64;41.51;49.69;;
67300;Laerm;57658;51.436;5.980;2022-07-05T00:49:45;42.78;40.32;45.53;;
67300;Laerm;57658;51.436;5.980;2022-07-05T00:49:55;43.75;39.19;51.65;;
67300;Laerm;57658;51.436;5.980;2022-07-05T00:50:06;45.29;39.20;55.52;;
67300;Laerm;57658;51.436;5.980;2022-07-05T00:50:16;44.49;39.59;53.90;;
67300;Laerm;57658;51.436;5.980;2022-07-05T00:50:27;46.11;39.80;58.20;;
67300;Laerm;57658;51.436;5.980;2022-07-05T00:50:37;45.06;40.79;54.72;;
67300;Laerm;57658;51.436;5.980;2022-07-05T00:50:48;43.58;40.23;49.33;;
67300;Laerm;57658;51.436;5.980;2022-07-05T00:51:00;43.05;39.25;50.83;;
67300;Laerm;57658;51.436;5.980;2022-07-05T00:51:10;45.35;40.91;52.03;;
67300;Laerm;57658;51.436;5.980;2022-07-05T00:51:21;42.89;40.04;45.08;;
67300;Laerm;57658;51.436;5.980;2022-07-05T00:51:32;43.41;40.80;46.27;;
67300;Laerm;57658;51.436;5.980;2022-07-05T00:51:43;43.47;41.18;45.76;;
67300;Laerm;57658;51.436;5.980;2022-07-05T00:51:53;44.29;40.51;46.56;;
67300;Laerm;57658;51.436;5.980;2022-07-05T00:52:04;44.56;41.66;46.86;;
67300;Laerm;57658;51.436;5.980;2022-07-05T00:52:15;44.87;42.44;48.51;;
67300;Laerm;57658;51.436;5.980;2022-07-05T00:52:25;45.51;41.99;52.36;;
67300;Laerm;57658;51.436;5.980;2022-07-05T00:52:35;49.25;42.41;71.63;;
67300;Laerm;57658;51.436;5.980;2022-07-05T00:52:46;45.03;42.01;46.99;;
67300;Laerm;57658;51.436;5.980;2022-07-05T00:52:56;44.64;42.10;46.40;;
67300;Laerm;57658;51.436;5.980;2022-07-05T00:53:07;44.64;41.68;46.88;;
67300;Laerm;57658;51.436;5.980;2022-07-05T00:53:18;44.49;41.88;47.47;;
67300;Laerm;57658;51.436;5.980;2022-07-05T00:53:28;45.37;42.06;47.98;;
67300;Laerm;57658;51.436;5.980;2022-07-05T00:53:38;45.38;42.83;47.74;;
67300;Laerm;57658;51.436;5.980;2022-07-05T00:53:49;45.11;42.54;47.36;;
67300;Laerm;57658;51.436;5.980;2022-07-05T00:54:00;44.30;41.12;46.35;;
67300;Laerm;57658;51.436;5.980;2022-07-05T00:54:10;44.25;41.99;46.35;;
67300;Laerm;57658;51.436;5.980;2022-07-05T00:54:21;44.77;42.57;46.87;;
67300;Laerm;57658;51.436;5.980;2022-07-05T00:54:32;44.52;42.25;47.07;;
67300;Laerm;57658;51.436;5.980;2022-07-05T00:54:43;45.91;41.63;48.89;;
67300;Laerm;57658;51.436;5.980;2022-07-05T00:54:53;45.39;42.73;47.40;;
67300;Laerm;57658;51.436;5.980;2022-07-05T00:55:04;65.60;43.05;74.64;;
67300;Laerm;57658;51.436;5.980;2022-07-05T00:55:15;70.45;58.65;76.21;;
67300;Laerm;57658;51.436;5.980;2022-07-05T00:55:25;64.70;54.76;74.15;;
67300;Laerm;57658;51.436;5.980;2022-07-05T00:55:35;64.25;54.34;73.38;;
67300;Laerm;57658;51.436;5.980;2022-07-05T00:55:46;64.16;55.52;73.58;;
67300;Laerm;57658;51.436;5.980;2022-07-05T00:55:57;77.56;56.19;84.19;;
67300;Laerm;57658;51.436;5.980;2022-07-05T00:56:07;81.41;77.31;87.06;;
67300;Laerm;57658;51.436;5.980;2022-07-05T00:56:17;80.34;61.27;86.72;;
67300;Laerm;57658;51.436;5.980;2022-07-05T00:56:29;60.96;46.08;71.86;;
67300;Laerm;57658;51.436;5.980;2022-07-05T00:56:39;47.26;45.09;49.33;;
67300;Laerm;57658;51.436;5.980;2022-07-05T00:56:49;46.53;44.48;49.03;;
67300;Laerm;57658;51.436;5.980;2022-07-05T00:57:00;47.12;44.68;49.29;;
67300;Laerm;57658;51.436;5.980;2022-07-05T00:57:10;47.50;44.26;49.47;;
67300;Laerm;57658;51.436;5.980;2022-07-05T00:57:21;46.87;43.84;49.33;;
67300;Laerm;57658;51.436;5.980;2022-07-05T00:57:32;45.05;42.35;46.91;;
67300;Laerm;57658;51.436;5.980;2022-07-05T00:57:43;44.40;41.45;47.12;;
67300;Laerm;57658;51.436;5.980;2022-07-05T00:57:53;43.69;41.50;46.33;;
67300;Laerm;57658;51.436;5.980;2022-07-05T00:58:04;44.82;42.01;47.15;;
67300;Laerm;57658;51.436;5.980;2022-07-05T00:58:14;45.57;42.77;47.64;;
67300;Laerm;57658;51.436;5.980;2022-07-05T00:58:24;45.71;43.12;48.04;;
67300;Laerm;57658;51.436;5.980;2022-07-05T00:58:35;45.39;42.28;48.69;;
67300;Laerm;57658;51.436;5.980;2022-07-05T00:58:45;46.02;42.99;48.74;;
67300;Laerm;57658;51.436;5.980;2022-07-05T00:58:56;45.35;42.49;48.23;;
67300;Laerm;57658;51.436;5.980;2022-07-05T00:59:06;46.02;43.19;48.54;;
67300;Laerm;57658;51.436;5.980;2022-07-05T00:59:16;45.35;42.56;47.47;;
67300;Laerm;57658;51.436;5.980;2022-07-05T00:59:27;46.38;43.42;49.22;;